Country Estates (222, 637) Station Data

Red Flag Warning: No
Fire Weather Zone: 250
SDGE Region: Ramona
Lat/Lon: 33.029/-116.793

Observations

Time Wind Speed/Gust Temp(F) RH Fuel Moist Fuel Temp(F) Dewpt(F) Tmax(F) Tmin(F) Accum Precip 10-min Precip SL Press(mb)
6/27 5:10pm 196 8 G 15 92° 12% - - 32° 96.2° 74.8° - - -
6/27 5:00pm 204 7 G 13 92° 12% - - 32° 96.2° 74.8° - - -
6/27 4:50pm 214 6 G 13 92° 12% - - 33° 96.2° 74.8° - - -
6/27 4:40pm 244 7 G 13 93° 10% - - 28° 96.2° 74.8° - - -
6/27 4:30pm 212 7 G 15 93° 11% - - 32° 96.2° 74.8° - - -
6/27 4:20pm 209 7 G 14 93° 11% - - 31° 96.2° 74.8° - - -
6/27 4:10pm 224 7 G 15 93° 11% - - 30° 96.2° 74.8° - - -
6/27 4:00pm 202 6 G 14 93° 13% - - 34° 96.2° 74.8° - - -
6/27 3:50pm 201 9 G 15 93° 12% - - 34° 96.2° 74.8° - - -
6/27 3:40pm 216 7 G 15 93° 11% - - 30° 96.2° 74.8° - - -
6/27 3:30pm 229 8 G 16 94° 9% - - 27° 96.2° 74.8° - - -
6/27 3:20pm 230 6 G 13 95° 9% - - 28° 96.2° 74.8° - - -
6/27 3:10pm 253 10 G 19 93° 10% - - 29° 96.2° 74.8° - - -
6/27 3:00pm 230 8 G 16 94° 9% - - 27° 96.2° 74.8° - - -
6/27 2:50pm 240 10 G 21 93° 10% - - 28° 96.2° 74.8° - - -
6/27 2:40pm 246 10 G 20 94° 10% - - 29° 96.2° 74.8° - - -
6/27 2:30pm 242 8 G 18 94° 10% - - 29° 96.2° 74.8° - - -
6/27 2:20pm 257 11 G 19 94° 10% - - 28° 96.2° 74.8° - - -
6/27 2:10pm 239 7 G 16 94° 9% - - 25° 96.2° 74.8° - - -
6/27 2:00pm 247 9 G 16 95° 7% - - 22° 96.2° 74.8° - - -
6/27 1:50pm 242 8 G 15 94° 7% - - 22° 96.2° 74.8° - - -
6/27 1:40pm 237 10 G 16 95° 8% - - 23° 96.2° 74.8° - - -
6/27 1:30pm 251 8 G 16 94° 8% - - 24° 95.9° 74.8° - - -
6/27 1:20pm 248 9 G 20 94° 7% - - 22° 95.9° 74.8° - - -
6/27 1:10pm 222 7 G 16 95° 7% - - 22° 95.9° 74.8° - - -
6/27 1:00pm 243 7 G 13 94° 7% - - 22° 95.4° 74.8° - - -
6/27 12:50pm 244 7 G 17 94° 8% - - 24° 94.5° 74.8° - - -
6/27 12:40pm 243 8 G 15 94° 7% - - 20° 94.5° 74.8° - - -
6/27 12:30pm 232 7 G 16 94° 6% - - 19° 94.5° 74.8° - - -
6/27 12:20pm 246 8 G 18 93° 7% - - 19° 94.5° 74.8° - - -
6/27 12:10pm 214 7 G 15 94° 6% - - 19° 94.5° 74.8° - - -
6/27 12:00pm 227 7 G 19 94° 6% - - 18° 94.5° 74.8° - - -
6/27 11:50am 257 8 G 15 92° 7% - - 18° 93.5° 74.8° - - -
6/27 11:40am 248 7 G 14 93° 7% - - 18° 93.5° 74.8° - - -
6/27 11:30am 239 7 G 15 92° 7% - - 18° 93° 74.8° - - -
6/27 11:20am 239 8 G 14 92° 6% - - 17° 93° 74.8° - - -
6/27 11:10am 242 8 G 14 92° 6% - - 17° 93° 74.8° - - -
6/27 11:00am 245 8 G 14 92° 7% - - 18° 93° 74.8° - - -
6/27 10:50am 218 4 G 10 92° 7% - - 18° 92.9° 74.8° - - -
6/27 10:40am 229 5 G 12 91° 6% - - 17° 91.5° 74.8° - - -
6/27 10:30am 248 5 G 11 91° 7% - - 17° 91.4° 74.8° - - -
6/27 10:20am 225 5 G 12 91° 7% - - 16° 91.1° 74.8° - - -
6/27 10:10am 221 4 G 14 90° 6% - - 16° 91° 74.8° - - -
6/27 10:00am 208 4 G 8 90° 7% - - 16° 90.4° 74.8° - - -
6/27 9:50am 202 5 G 12 90° 7% - - 18° 90.4° 74.8° - - -
6/27 9:40am 192 4 G 9 90° 7% - - 19° 90.2° 74.8° - - -
6/27 9:30am 191 3 G 7 89° 7% - - 18° 89.3° 74.8° - - -
6/27 9:20am 240 2 G 5 88° 7% - - 18° 88.8° 74.8° - - -
6/27 9:10am 220 2 G 6 88° 8% - - 19° 88.1° 74.8° - - -
6/27 8:50am 214 2 G 4 87° 9% - - 22° 87.5° 74.8° - - -
6/27 8:40am 220 1 G 3 86° 10% - - 24° 86.5° 74.8° - - -
6/27 8:30am 221 1 G 2 85° 12% - - 27° 85.8° 74.8° - - -
6/27 8:20am 243 0 G 1 84° 13% - - 28° 84.6° 74.8° - - -
6/27 8:10am 201 1 G 3 83° 13% - - 28° 83.5° 74.8° - - -
6/27 8:00am 211 0 G 1 83° 13% - - 27° 83.1° 74.8° - - -
6/27 7:40am 244 0 G 2 82° 13% - - 26° 83.1° 74.8° - - -
6/27 7:30am 31 1 G 2 80° 12% - - 24° 82.1° 74.8° - - -
6/27 7:20am 345 1 G 4 80° 13% - - 25° 81° 74.8° - - -
6/27 7:10am 46 3 G 5 79° 13% - - 23° 81° 74.8° - - -
6/27 7:00am 37 2 G 3 78° 12% - - 22° 81° 74.8° - - -
6/27 6:50am 84 1 G 2 78° 12% - - 21° 81° 74.8° - - -
6/27 6:40am 43 2 G 4 77° 13% - - 21° 81° 74.8° - - -
6/27 6:30am 26 4 G 7 76° 12% - - 21° 81° 74.8° - - -
6/27 6:20am 35 6 G 8 76° 12% - - 20° 81° 74.8° - - -
6/27 6:10am 26 4 G 7 75° 12% - - 19° 81° 74.8° - - -
6/27 6:00am 34 5 G 7 76° 11% - - 19° 81° 75.1° - - -
6/27 5:50am 22 2 G 4 77° 11% - - 19° 81° 75.1° - - -
6/27 5:40am 36 6 G 8 77° 11% - - 19° 81° 75.1° - - -
6/27 5:30am 40 7 G 8 77° 11% - - 19° 81° 75.1° - - -
6/27 5:20am 35 4 G 6 76° 11% - - 19° 81° 75.1° - - -
6/27 5:10am 35 5 G 7 76° 11% - - 19° 81° 75.1° - - -
6/27 5:00am 33 5 G 7 77° 11% - - 19° 81° 75.1° - - -
6/27 4:50am 38 5 G 7 77° 11% - - 18° 81° 75.1° - - -
6/27 4:40am 37 5 G 7 77° 11% - - 18° 81° 75.1° - - -
6/27 4:30am 34 5 G 8 76° 12% - - 19° 81° 75.1° - - -
6/27 4:20am 39 6 G 8 76° 11% - - 19° 81° 75.1° - - -
6/27 4:10am 37 5 G 8 77° 11% - - 18° 81° 75.6° - - -
6/27 4:00am 34 5 G 7 78° 11% - - 18° 81° 75.6° - - -
6/27 3:50am 39 6 G 8 78° 11% - - 18° 81° 75.6° - - -
6/27 3:40am 49 3 G 7 79° 10% - - 19° 81° 75.6° - - -
6/27 3:30am 34 2 G 4 78° 11% - - 19° 81° 75.6° - - -
6/27 3:20am 32 3 G 6 78° 11% - - 19° 81° 75.6° - - -
6/27 3:10am 39 4 G 7 78° 11% - - 19° 81° 75.6° - - -
6/27 3:00am 30 5 G 8 78° 11% - - 18° 81° 75.6° - - -
6/27 2:50am 39 6 G 9 78° 11% - - 18° 81° 75.6° - - -
6/27 2:40am 43 8 G 9 79° 10% - - 18° 81° 75.6° - - -
6/27 2:30am 46 8 G 9 79° 10% - - 18° 81° 75.6° - - -
6/27 2:20am 42 6 G 8 79° 10% - - 18° 81° 75.6° - - -
6/27 2:10am 24 3 G 5 77° 12% - - 20° 81° 75.6° - - -
6/27 2:00am 33 5 G 8 76° 11% - - 19° 81° 75.6° - - -
6/27 1:50am 34 5 G 8 78° 11% - - 19° 81° 77.5° - - -
6/27 1:40am 27 2 G 5 78° 11% - - 20° 81° 77.7° - - -
6/27 1:30am 32 3 G 5 79° 10% - - 19° 81° 78.2° - - -
6/27 1:20am 28 3 G 5 80° 10% - - 19° 81° 78.2° - - -
6/27 1:10am 43 5 G 7 80° 10% - - 18° 81° 78.2° - - -
6/27 1:00am 42 5 G 7 80° 10% - - 19° 81° 78.2° - - -
6/27 12:50am 36 4 G 6 79° 11% - - 20° 81° 78.2° - - -
6/27 12:40am 21 3 G 6 79° 11% - - 20° 81° 78.2° - - -
6/27 12:30am 43 5 G 7 79° 11% - - 20° 81° 78.6° - - -
6/27 12:20am 29 3 G 5 80° 11% - - 21° 81° 79.5° - - -
6/27 12:10am 36 5 G 6 80° 11% - - 21° 81° 79.5° - - -
6/27 12:00am 43 8 G 9 79° 11% - - 21° 101.1° 78° - - -
6/26 11:50pm 45 7 G 8 80° 12% - - 22° 101.1° 78° - - -
6/26 11:40pm 45 5 G 7 80° 12% - - 23° 101.1° 78° - - -
6/26 11:30pm 33 2 G 4 80° 12% - - 23° 101.1° 78° - - -
6/26 11:20pm 21 1 G 3 80° 12% - - 23° 101.1° 78° - - -
6/26 11:10pm 28 2 G 4 79° 12% - - 23° 101.1° 78° - - -
6/26 11:00pm 34 5 G 7 79° 12% - - 23° 101.1° 78° - - -
6/26 10:50pm 37 5 G 7 82° 11% - - 22° 101.1° 78.9° - - -
6/26 10:40pm 36 6 G 7 82° 11% - - 22° 101.1° 78.9° - - -
6/26 10:30pm 45 7 G 8 81° 11% - - 23° 101.1° 78.9° - - -
6/26 10:20pm 43 7 G 8 82° 11% - - 23° 101.1° 78.9° - - -
6/26 10:10pm 43 6 G 7 82° 12% - - 24° 101.1° 78.9° - - -
6/26 10:00pm 44 6 G 7 82° 12% - - 24° 101.1° 78.9° - - -
6/26 9:50pm 48 6 G 7 82° 12% - - 25° 101.1° 78.9° - - -
6/26 9:40pm 48 6 G 7 82° 13% - - 26° 101.1° 78.9° - - -
6/26 9:30pm 46 6 G 7 81° 13% - - 26° 101.1° 78.9° - - -
6/26 9:20pm 28 2 G 6 83° 13% - - 26° 101.1° 78.9° - - -
6/26 9:10pm 12 1 G 2 83° 13% - - 27° 101.1° 78.9° - - -
6/26 9:00pm 64 0 G 1 83° 13% - - 27° 101.1° 78.9° - - -
6/26 8:50pm 15 0 G 2 84° 13% - - 27° 101.1° 78.9° - - -
6/26 8:40pm 13 1 G 3 83° 13% - - 27° 101.1° 78.9° - - -
6/26 8:30pm 349 0 G 2 83° 13% - - 27° 101.1° 78.9° - - -
6/26 8:20pm 347 3 G 6 84° 13% - - 28° 101.1° 78.9° - - -
6/26 8:10pm 330 5 G 6 86° 12% - - 27° 101.1° 78.9° - - -
6/26 8:00pm 309 4 G 6 86° 12% - - 27° 101.1° 78.9° - - -
6/26 7:50pm 295 5 G 7 87° 11% - - 26° 101.1° 78.9° - - -
6/26 7:40pm 282 6 G 9 88° 10% - - 25° 101.1° 78.9° - - -
6/26 7:30pm 279 5 G 8 89° 10% - - 24° 101.1° 78.9° - - -
6/26 7:20pm 281 5 G 8 90° 9% - - 23° 101.1° 78.9° - - -
6/26 7:10pm 275 6 G 9 91° 8% - - 22° 101.1° 78.9° - - -
6/26 7:00pm 282 6 G 11 92° 7% - - 20° 101.1° 78.9° - - -
6/26 6:50pm 278 7 G 12 92° 7% - - 20° 101.1° 78.9° - - -
6/26 6:40pm 276 9 G 13 93° 7% - - 19° 101.1° 78.9° - - -
6/26 6:30pm 254 6 G 12 94° 6% - - 19° 101.1° 78.9° - - -
6/26 6:20pm 243 7 G 13 94° 6% - - 19° 101.1° 78.9° - - -
6/26 6:10pm 242 7 G 13 95° 7% - - 22° 101.1° 78.9° - - -
6/26 6:00pm 249 7 G 15 95° 7% - - 20° 101.1° 78.9° - - -
6/26 5:50pm 241 8 G 15 95° 6% - - 19° 101.1° 78.9° - - -
6/26 5:40pm 237 9 G 16 96° 6% - - 19° 101.1° 78.9° - - -
6/26 5:30pm 240 8 G 14 96° 6% - - 20° 101.1° 78.9° - - -
6/26 5:20pm 247 9 G 16 97° 7% - - 22° 101.1° 78.9° - - -
6/26 5:10pm 271 9 G 16 97° 8% - - 26° 101.1° 78.9° - - -
6/26 5:00pm 247 8 G 17 97° 8% - - 26° 101.1° 78.9° - - -
6/26 4:50pm 257 8 G 13 98° 9% - - 29° 101.1° 78.9° - - -
6/26 4:40pm 248 9 G 15 98° 8% - - 28° 101.1° 78.9° - - -
6/26 4:30pm 235 7 G 15 98° 7% - - 24° 101.1° 78.9° - - -
6/26 4:20pm 241 9 G 16 98° 7% - - 23° 101.1° 78.9° - - -
6/26 4:10pm 258 10 G 19 98° 7% - - 22° 101.1° 78.9° - - -
6/26 4:00pm 241 8 G 15 99° 7% - - 25° 101.1° 78.9° - - -
6/26 3:50pm 232 7 G 18 99° 7% - - 25° 101.1° 78.9° - - -
6/26 3:40pm 243 8 G 18 98° 7% - - 24° 101.1° 78.9° - - -
6/26 3:30pm 251 10 G 18 99° 7% - - 25° 101.1° 78.9° - - -
6/26 3:20pm 234 8 G 15 99° 7% - - 24° 101.1° 78.9° - - -
6/26 3:10pm 240 9 G 18 99° 7% - - 22° 101.1° 78.9° - - -
6/26 3:00pm 248 11 G 19 99° 6% - - 21° 101.1° 78.9° - - -
6/26 2:50pm 236 8 G 19 100° 6% - - 20° 101.1° 78.9° - - -
6/26 2:40pm 234 8 G 17 100° 6% - - 20° 101.1° 78.9° - - -
6/26 2:30pm 228 6 G 14 99° 6% - - 19° 101.1° 78.9° - - -
6/26 2:20pm 238 10 G 16 99° 6% - - 21° 101.1° 78.9° - - -
6/26 2:10pm 238 8 G 20 99° 6% - - 22° 101.1° 78.9° - - -
6/26 2:00pm 235 8 G 17 100° 6% - - 22° 101.1° 78.9° - - -
6/26 1:50pm 235 8 G 16 99° 6% - - 22° 100.8° 78.9° - - -
6/26 1:40pm 246 10 G 19 99° 6% - - 22° 100.8° 78.9° - - -
6/26 1:30pm 233 8 G 19 100° 6% - - 21° 100.8° 78.9° - - -
6/26 1:20pm 240 7 G 18 100° 6% - - 20° 100.8° 78.9° - - -
6/26 1:10pm 248 10 G 22 99° 6% - - 22° 100.7° 78.9° - - -
6/26 1:00pm 252 7 G 18 100° 6% - - 21° 100.7° 78.9° - - -
6/26 12:50pm 234 6 G 15 100° 6% - - 22° 100.7° 78.9° - - -
6/26 12:40pm 236 6 G 17 100° 6% - - 19° 100.3° 78.9° - - -
6/26 12:30pm 242 7 G 14 99° 6% - - 21° 100.3° 78.9° - - -
6/26 12:20pm 246 7 G 19 100° 6% - - 22° 100.3° 78.9° - - -
6/26 12:10pm 236 7 G 17 100° 6% - - 21° 100° 78.9° - - -
6/26 12:00pm 232 7 G 15 99° 7% - - 23° 99.8° 78.9° - - -
6/26 11:50am 239 8 G 16 99° 6% - - 20° 99.8° 78.9° - - -
6/26 11:40am 233 7 G 14 99° 6% - - 20° 99.8° 78.9° - - -
6/26 11:30am 248 7 G 14 99° 6% - - 19° 99.6° 78.9° - - -
6/26 11:20am 238 7 G 13 98° 6% - - 19° 99.6° 78.9° - - -
6/26 11:10am 244 7 G 17 99° 6% - - 20° 99.6° 78.9° - - -
6/26 11:00am 233 6 G 16 99° 6% - - 20° 99.6° 78.9° - - -
6/26 10:50am 222 5 G 11 99° 6% - - 21° 99° 78.9° - - -
6/26 10:40am 231 5 G 13 98° 7% - - 22° 98.7° 78.9° - - -
6/26 10:30am 236 5 G 12 98° 8% - - 25° 98.3° 78.9° - - -
6/26 10:20am 226 5 G 10 97° 9% - - 28° 97.4° 78.9° - - -
6/26 10:10am 214 4 G 9 97° 9% - - 28° 97.3° 78.9° - - -
6/26 10:00am 192 4 G 10 97° 10% - - 32° 97.1° 78.9° - - -
6/26 9:50am 178 4 G 8 96° 11% - - 33° 96.7° 78.9° - - -
6/26 9:40am 184 4 G 7 95° 11% - - 33° 95.9° 78.9° - - -
6/26 9:30am 175 3 G 6 95° 11% - - 32° 94.8° 78.9° - - -
6/26 9:20am 203 2 G 5 94° 12% - - 33° 94.5° 78.9° - - -
6/26 9:10am 217 2 G 4 94° 11% - - 32° 93.9° 78.9° - - -
6/26 9:00am 211 2 G 4 93° 12% - - 34° 93.6° 78.9° - - -
6/26 8:50am 205 1 G 3 92° 13% - - 34° 92.8° 78.9° - - -
6/26 8:40am 215 1 G 3 92° 13% - - 34° 92.1° 78.9° - - -
6/26 8:30am 286 0 G 1 91° 13% - - 34° 91.9° 78.9° - - -
6/26 8:20am 204 0 G 2 90° 13% - - 33° 90.3° 78.9° - - -
6/26 8:10am 219 0 G 1 89° 14% - - 33° 89.5° 78.9° - - -
6/26 8:00am 212 0 G 2 89° 13% - - 32° 89.5° 78.9° - - -
6/26 7:50am 251 0 G 1 89° 13% - - 31° 89.5° 78.9° - - -
6/26 7:40am 62 0 G 0 89° 14% - - 34° 89.5° 78.9° - - -
6/26 7:30am 47 0 G 1 86° 14% - - 31° 86.8° 78.9° - - -
6/26 7:20am 27 1 G 2 84° 16% - - 34° 85° 78.9° - - -
6/26 7:10am 41 2 G 3 84° 17% - - 34° 84.9° 78.9° - - -
6/26 7:00am 15 0 G 2 84° 14% - - 30° 84.8° 78.9° - - -
6/26 6:50am 343 1 G 1 83° 14% - - 30° 84.8° 78.9° - - -
6/26 6:40am 327 1 G 1 82° 15% - - 30° 84.8° 78.9° - - -
6/26 6:30am 357 2 G 6 81° 16% - - 30° 84.8° 78.9° - - -
6/26 6:20am 32 4 G 7 82° 15% - - 30° 84.8° 78.9° - - -
6/26 6:10am 262 0 G 3 81° 16% - - 30° 84.8° 78.9° - - -
6/26 6:00am 348 3 G 8 83° 14% - - 30° 84.8° 78.9° - - -